PWSweather.com
Personal Weather Stations
Station Observations
265NC
Va2kh, Becancour, QC G9H 2M1

Va2khBecancour, QC G9H 2M1

Lat: 46.32855, Lon: -72.52436

Elevation: 5

Station Type: National Geographic 265NC

http://www.qsl.net/va2kh

High Low Average
Temperature 18.0°F-7.8°F 12.0°F-11.1°F 14.6°F-9.7°F
Dew Point 2.1°F-16.6°F -5.2°F-20.7°F -2.1°F-18.9°F
Winds 18.3 mph ENE29.5 mph ENE 7.6 mph 12.2 mph 12.2 mph 19.6 mph
Wind Gusts 38.0 mph61.2 mph 12.1 mph19.5 mph 20.7 mph33.3 mph
Humidity 51% 40% 47%
Pressure 29.90 in1012.50 in 29.75 in1007.50 in -
Precipitation 0.00 in0.00 in - -
Hour Temp Dew Point Humidity Winds Wind Gusts Pressure Precip Precip Rate Daily Precip Total
12:00 AM 16.5°F-8.6°C -1.0°F-18.3°C 45% 7.6 mph ENE12.2 kmh ENE 12.1 mph19.5 kmh 29.90 in1012.5 mb 0.00 in0.0 mm 0.00 in0.0 mm 0.00 in0.0 mm
12:15 AM 16.5°F-8.6°C -0.6°F-18.1°C 46% 11.4 mph ENE18.3 kmh ENE 14.5 mph23.3 kmh 29.89 in1012.2 mb 0.00 in0.0 mm 0.00 in0.0 mm 0.00 in0.0 mm
12:30 AM 16.5°F-8.6°C -0.6°F-18.1°C 46% 12.1 mph E19.5 kmh E 16.8 mph27.0 kmh 29.88 in1011.9 mb 0.00 in0.0 mm 0.00 in0.0 mm 0.00 in0.0 mm
12:45 AM 16.3°F-8.7°C -0.7°F-18.2°C 46% 11.4 mph ENE18.3 kmh ENE 16.8 mph27.0 kmh 29.87 in1011.5 mb 0.00 in0.0 mm 0.00 in0.0 mm 0.00 in0.0 mm
01:00 AM 16.5°F-8.6°C -0.1°F-17.8°C 47% 10.7 mph ENE17.2 kmh ENE 17.4 mph28.0 kmh 29.86 in1011.2 mb 0.00 in0.0 mm 0.00 in0.0 mm 0.00 in0.0 mm
01:15 AM 16.9°F-8.4°C -0.2°F-17.9°C 46% 12.1 mph E19.5 kmh E 22.1 mph35.6 kmh 29.86 in1011.2 mb 0.00 in0.0 mm 0.00 in0.0 mm 0.00 in0.0 mm
01:30 AM 16.7°F-8.5°C -0.9°F-18.3°C 45% 11.4 mph ENE18.3 kmh ENE 18.3 mph29.5 kmh 29.86 in1011.2 mb 0.00 in0.0 mm 0.00 in0.0 mm 0.00 in0.0 mm
01:45 AM 16.7°F-8.5°C -1.3°F-18.5°C 44% 11.4 mph ENE18.3 kmh ENE 23.5 mph37.8 kmh 29.86 in1011.2 mb 0.00 in0.0 mm 0.00 in0.0 mm 0.00 in0.0 mm
02:15 AM 16.7°F-8.5°C -2.8°F-19.3°C 41% 13.6 mph E21.9 kmh E 22.8 mph36.7 kmh 29.85 in1010.8 mb 0.00 in0.0 mm 0.00 in0.0 mm 0.00 in0.0 mm
02:30 AM 16.5°F-8.6°C -3.5°F-19.7°C 40% 13.0 mph E20.9 kmh E 19.0 mph30.6 kmh 29.84 in1010.5 mb 0.00 in0.0 mm 0.00 in0.0 mm 0.00 in0.0 mm
02:45 AM 16.2°F-8.8°C -3.8°F-19.9°C 40% 15.2 mph E24.5 kmh E 23.5 mph37.8 kmh 29.83 in1010.2 mb 0.00 in0.0 mm 0.00 in0.0 mm 0.00 in0.0 mm
03:00 AM 16.0°F-8.9°C -4.0°F-20.0°C 40% 14.5 mph ENE23.3 kmh ENE 25.1 mph40.4 kmh 29.82 in1009.8 mb 0.00 in0.0 mm 0.00 in0.0 mm 0.00 in0.0 mm
03:15 AM 15.6°F-9.1°C -3.3°F-19.6°C 42% 11.4 mph E18.3 kmh E 19.0 mph30.6 kmh 29.81 in1009.5 mb 0.00 in0.0 mm 0.00 in0.0 mm 0.00 in0.0 mm
03:30 AM 15.4°F-9.2°C -3.0°F-19.4°C 43% 11.4 mph E18.3 kmh E 17.4 mph28.0 kmh 29.82 in1009.8 mb 0.00 in0.0 mm 0.00 in0.0 mm 0.00 in0.0 mm
03:45 AM 15.1°F-9.4°C -2.4°F-19.1°C 45% 9.8 mph E15.8 kmh E 17.4 mph28.0 kmh 29.82 in1009.8 mb 0.00 in0.0 mm 0.00 in0.0 mm 0.00 in0.0 mm
04:00 AM 15.1°F-9.4°C -2.4°F-19.1°C 45% 12.1 mph E19.5 kmh E 19.0 mph30.6 kmh 29.83 in1010.2 mb 0.00 in0.0 mm 0.00 in0.0 mm 0.00 in0.0 mm
04:15 AM 14.7°F-9.6°C -1.8°F-18.8°C 47% 10.7 mph ENE17.2 kmh ENE 17.4 mph28.0 kmh 29.82 in1009.8 mb 0.00 in0.0 mm 0.00 in0.0 mm 0.00 in0.0 mm
04:30 AM 14.5°F-9.7°C -1.1°F-18.4°C 49% 9.2 mph E14.8 kmh E 14.5 mph23.3 kmh 29.81 in1009.5 mb 0.00 in0.0 mm 0.00 in0.0 mm 0.00 in0.0 mm
04:45 AM 14.2°F-9.9°C -1.0°F-18.3°C 50% 10.7 mph ENE17.2 kmh ENE 16.8 mph27.0 kmh 29.81 in1009.5 mb 0.00 in0.0 mm 0.00 in0.0 mm 0.00 in0.0 mm
05:00 AM 14.0°F-10.0°C -1.6°F-18.7°C 49% 9.8 mph E15.8 kmh E 19.0 mph30.6 kmh 29.81 in1009.5 mb 0.00 in0.0 mm 0.00 in0.0 mm 0.00 in0.0 mm
05:15 AM 13.6°F-10.2°C -1.9°F-18.8°C 49% 11.4 mph E18.3 kmh E 19.0 mph30.6 kmh 29.80 in1009.1 mb 0.00 in0.0 mm 0.00 in0.0 mm 0.00 in0.0 mm
05:30 AM 13.5°F-10.3°C -2.1°F-18.9°C 49% 15.9 mph E25.6 kmh E 23.5 mph37.8 kmh 29.80 in1009.1 mb 0.00 in0.0 mm 0.00 in0.0 mm 0.00 in0.0 mm
05:45 AM 12.9°F-10.6°C -2.6°F-19.2°C 49% 13.0 mph E20.9 kmh E 19.7 mph31.7 kmh 29.80 in1009.1 mb 0.00 in0.0 mm 0.00 in0.0 mm 0.00 in0.0 mm
06:00 AM 12.9°F-10.6°C -3.0°F-19.4°C 48% 13.0 mph E20.9 kmh E 23.5 mph37.8 kmh 29.80 in1009.1 mb 0.00 in0.0 mm 0.00 in0.0 mm 0.00 in0.0 mm
06:15 AM 12.7°F-10.7°C -3.6°F-19.8°C 47% 11.4 mph E18.3 kmh E 22.8 mph36.7 kmh 29.79 in1008.8 mb 0.00 in0.0 mm 0.00 in0.0 mm 0.00 in0.0 mm
06:30 AM 12.6°F-10.8°C -4.2°F-20.1°C 46% 15.2 mph E24.5 kmh E 23.5 mph37.8 kmh 29.79 in1008.8 mb 0.00 in0.0 mm 0.00 in0.0 mm 0.00 in0.0 mm
06:45 AM 12.4°F-10.9°C -4.8°F-20.4°C 45% 18.3 mph ENE29.5 kmh ENE 24.4 mph39.3 kmh 29.80 in1009.1 mb 0.00 in0.0 mm 0.00 in0.0 mm 0.00 in0.0 mm
07:00 AM 12.0°F-11.1°C -5.2°F-20.7°C 45% 15.2 mph E24.5 kmh E 25.9 mph41.7 kmh 29.79 in1008.8 mb 0.00 in0.0 mm 0.00 in0.0 mm 0.00 in0.0 mm
07:15 AM 12.0°F-11.1°C -5.2°F-20.7°C 45% 16.8 mph ENE27.0 kmh ENE 25.1 mph40.4 kmh 29.79 in1008.8 mb 0.00 in0.0 mm 0.00 in0.0 mm 0.00 in0.0 mm
07:30 AM 12.0°F-11.1°C -4.7°F-20.4°C 46% 11.4 mph E18.3 kmh E 21.3 mph34.3 kmh 29.79 in1008.8 mb 0.00 in0.0 mm 0.00 in0.0 mm 0.00 in0.0 mm
07:45 AM 12.0°F-11.1°C -3.8°F-19.9°C 48% 12.1 mph ESE19.5 kmh ESE 20.6 mph33.2 kmh 29.78 in1008.5 mb 0.00 in0.0 mm 0.00 in0.0 mm 0.00 in0.0 mm
08:00 AM 12.2°F-11.0°C -3.6°F-19.8°C 48% 13.6 mph E21.9 kmh E 18.3 mph29.5 kmh 29.78 in1008.5 mb 0.00 in0.0 mm 0.00 in0.0 mm 0.00 in0.0 mm
08:15 AM 12.2°F-11.0°C -4.1°F-20.1°C 47% 13.0 mph E20.9 kmh E 21.3 mph34.3 kmh 29.78 in1008.5 mb 0.00 in0.0 mm 0.00 in0.0 mm 0.00 in0.0 mm
08:30 AM 12.6°F-10.8°C -3.3°F-19.6°C 48% 9.2 mph E14.8 kmh E 21.3 mph34.3 kmh 29.79 in1008.8 mb 0.00 in0.0 mm 0.00 in0.0 mm 0.00 in0.0 mm
08:45 AM 12.7°F-10.7°C -3.2°F-19.6°C 48% 10.7 mph ENE17.2 kmh ENE 20.6 mph33.2 kmh 29.79 in1008.8 mb 0.00 in0.0 mm 0.00 in0.0 mm 0.00 in0.0 mm
09:00 AM 13.3°F-10.4°C -1.8°F-18.8°C 50% 12.1 mph E19.5 kmh E 16.8 mph27.0 kmh 29.78 in1008.5 mb 0.00 in0.0 mm 0.00 in0.0 mm 0.00 in0.0 mm
09:15 AM 13.6°F-10.2°C -1.0°F-18.3°C 51% 11.4 mph E18.3 kmh E 19.0 mph30.6 kmh 29.78 in1008.5 mb 0.00 in0.0 mm 0.00 in0.0 mm 0.00 in0.0 mm
09:30 AM 14.0°F-10.0°C -0.7°F-18.2°C 51% 13.0 mph ENE20.9 kmh ENE 21.3 mph34.3 kmh 29.78 in1008.5 mb 0.00 in0.0 mm 0.00 in0.0 mm 0.00 in0.0 mm
09:45 AM 14.5°F-9.7°C -0.2°F-17.9°C 51% 10.7 mph ENE17.2 kmh ENE 20.6 mph33.2 kmh 29.79 in1008.8 mb 0.00 in0.0 mm 0.00 in0.0 mm 0.00 in0.0 mm
10:00 AM 15.3°F-9.3°C -0.4°F-18.0°C 49% 10.7 mph ENE17.2 kmh ENE 20.6 mph33.2 kmh 29.79 in1008.8 mb 0.00 in0.0 mm 0.00 in0.0 mm 0.00 in0.0 mm
10:15 AM 15.8°F-9.0°C -0.8°F-18.2°C 47% 15.9 mph E25.6 kmh E 38.0 mph61.2 kmh 29.78 in1008.5 mb 0.00 in0.0 mm 0.00 in0.0 mm 0.00 in0.0 mm
10:30 AM 16.7°F-8.5°C 0.0°F-17.8°C 47% 10.7 mph E17.2 kmh E 36.5 mph58.7 kmh 29.78 in1008.5 mb 0.00 in0.0 mm 0.00 in0.0 mm 0.00 in0.0 mm
10:45 AM 17.1°F-8.3°C 0.4°F-17.6°C 47% 11.4 mph E18.3 kmh E 19.0 mph30.6 kmh 29.76 in1007.8 mb 0.00 in0.0 mm 0.00 in0.0 mm 0.00 in0.0 mm
11:00 AM 18.0°F-7.8°C 2.1°F-16.6°C 49% 10.7 mph ENE17.2 kmh ENE 16.8 mph27.0 kmh 29.75 in1007.5 mb 0.00 in0.0 mm 0.00 in0.0 mm 0.00 in0.0 mm